createdAt,value
2018-12-09T00:02:01.178Z,5.97
2018-12-09T00:04:29.862Z,8.17
2018-12-09T00:06:58.523Z,9.77
2018-12-09T00:09:27.217Z,9.73
2018-12-09T00:11:55.905Z,6.90
2018-12-09T00:14:24.558Z,6.40
2018-12-09T00:16:53.226Z,13.37
2018-12-09T00:19:21.949Z,14.00
2018-12-09T00:21:50.683Z,16.00
2018-12-09T00:24:19.508Z,11.23
2018-12-09T00:26:48.186Z,13.33
2018-12-09T00:29:16.918Z,17.27
2018-12-09T00:31:45.794Z,8.97
2018-12-09T00:34:14.468Z,11.63
2018-12-09T00:36:44.222Z,12.87
2018-12-09T00:39:12.945Z,9.63
2018-12-09T00:41:41.641Z,7.40
2018-12-09T00:44:10.343Z,10.53
2018-12-09T00:46:39.049Z,17.40
2018-12-09T00:49:07.723Z,8.27
2018-12-09T00:51:36.462Z,12.97
2018-12-09T00:54:05.172Z,13.50
2018-12-09T00:56:33.906Z,7.47
2018-12-09T00:59:02.662Z,14.03
2018-12-09T01:01:31.417Z,13.73
2018-12-09T01:04:00.088Z,11.30
2018-12-09T01:06:28.779Z,8.97
2018-12-09T01:08:57.471Z,12.50
2018-12-09T01:11:26.215Z,9.90
2018-12-09T01:13:54.879Z,11.40
2018-12-09T01:16:24.645Z,11.63
2018-12-09T01:18:53.330Z,20.07
2018-12-09T01:21:21.991Z,9.00
2018-12-09T01:23:50.688Z,13.93
2018-12-09T01:26:19.370Z,9.77
2018-12-09T01:28:48.111Z,11.30
2018-12-09T01:31:16.813Z,9.50
2018-12-09T01:33:45.475Z,13.53
2018-12-09T01:36:14.151Z,13.37
2018-12-09T01:38:43.187Z,7.90
2018-12-09T01:41:11.865Z,12.27
2018-12-09T01:43:40.530Z,4.00
2018-12-09T01:46:09.276Z,7.03
2018-12-09T01:48:37.969Z,5.70
2018-12-09T01:51:17.658Z,4.30
2018-12-09T01:54:18.280Z,1.27
2018-12-09T01:56:47.065Z,2.80
2018-12-09T01:59:15.772Z,4.37
2018-12-09T02:01:44.494Z,3.40
2018-12-09T02:04:13.195Z,5.20
2018-12-09T02:06:41.895Z,1.30
2018-12-09T02:09:10.804Z,2.47
2018-12-09T02:11:39.676Z,2.20
2018-12-09T02:14:08.312Z,0.53
2018-12-09T02:16:37.023Z,2.50
2018-12-09T02:19:25.956Z,1.10
2018-12-09T02:21:54.970Z,1.53
2018-12-09T02:24:23.811Z,1.87
2018-12-09T02:26:52.467Z,3.33
2018-12-09T02:29:21.143Z,1.37
2018-12-09T02:31:49.886Z,0.50
2018-12-09T02:34:18.516Z,1.70
2018-12-09T02:36:47.217Z,1.30
2018-12-09T02:39:15.898Z,1.83
2018-12-09T02:41:44.690Z,2.60
2018-12-09T02:44:13.391Z,1.93
2018-12-09T02:46:42.282Z,2.93
2018-12-09T02:49:10.936Z,2.47
2018-12-09T02:51:39.645Z,5.53
2018-12-09T02:54:08.456Z,2.40
2018-12-09T02:56:37.448Z,2.80
2018-12-09T02:59:06.168Z,1.60
2018-12-09T03:01:34.926Z,1.83
2018-12-09T03:04:03.591Z,2.70
2018-12-09T03:06:32.327Z,3.00
2018-12-09T03:09:00.994Z,5.20
2018-12-09T03:11:29.777Z,2.50
2018-12-09T03:13:58.452Z,2.80
2018-12-09T03:16:27.153Z,2.27
2018-12-09T03:18:56.297Z,3.87
2018-12-09T03:21:24.959Z,5.63
2018-12-09T03:23:53.615Z,2.97
2018-12-09T03:26:22.308Z,4.67
2018-12-09T03:28:50.973Z,4.27
2018-12-09T03:31:19.698Z,3.53
2018-12-09T03:33:48.387Z,4.00
2018-12-09T03:36:17.163Z,4.37
2018-12-09T03:38:45.871Z,6.63
2018-12-09T03:41:14.902Z,5.37
2018-12-09T03:43:43.604Z,4.77
2018-12-09T03:46:12.275Z,4.40
2018-12-09T03:48:40.958Z,2.63
2018-12-09T03:51:09.612Z,3.63
2018-12-09T03:53:38.278Z,4.90
2018-12-09T03:56:06.956Z,3.37
2018-12-09T03:58:35.632Z,2.90
2018-12-09T04:01:04.310Z,4.10
2018-12-09T04:03:33.078Z,3.57
2018-12-09T04:06:01.727Z,1.10
2018-12-09T04:08:30.402Z,5.93
2018-12-09T04:10:59.050Z,6.37
2018-12-09T04:13:27.719Z,2.13
2018-12-09T04:15:57.331Z,4.10
2018-12-09T04:18:25.962Z,4.00
2018-12-09T04:20:54.584Z,5.97
2018-12-09T04:23:23.240Z,4.23
2018-12-09T04:25:52.053Z,5.00
2018-12-09T04:28:20.814Z,1.90
2018-12-09T04:30:49.477Z,6.00
2018-12-09T04:33:18.153Z,5.33
2018-12-09T04:35:46.854Z,3.77
2018-12-09T04:38:15.857Z,7.63
2018-12-09T04:40:44.471Z,3.60
2018-12-09T04:43:13.102Z,4.60
2018-12-09T04:45:41.759Z,8.87
2018-12-09T04:48:10.441Z,5.00
2018-12-09T04:50:39.160Z,3.37
2018-12-09T04:53:07.812Z,5.27
2018-12-09T04:55:36.403Z,5.40
2018-12-09T04:58:05.076Z,6.57
2018-12-09T05:00:45.009Z,5.87
2018-12-09T05:03:13.669Z,3.20
2018-12-09T05:05:42.340Z,3.40
2018-12-09T05:08:10.989Z,6.37
2018-12-09T05:10:39.655Z,5.63
2018-12-09T05:13:08.323Z,6.90
2018-12-09T05:15:36.975Z,7.03
2018-12-09T05:18:05.663Z,3.30
2018-12-09T05:20:34.314Z,6.07
2018-12-09T05:23:03.342Z,6.53
2018-12-09T05:25:32.014Z,3.20
2018-12-09T05:28:00.794Z,2.73
2018-12-09T05:30:29.433Z,2.43
2018-12-09T05:32:58.107Z,9.27
2018-12-09T05:35:26.803Z,4.13
2018-12-09T05:37:55.351Z,2.67
2018-12-09T05:40:24.016Z,4.93
2018-12-09T05:42:52.691Z,4.63
2018-12-09T05:45:21.356Z,4.30
2018-12-09T05:47:50.072Z,1.87
2018-12-09T05:50:18.740Z,3.63
2018-12-09T05:52:47.379Z,5.23
2018-12-09T05:55:16.054Z,4.30
2018-12-09T05:57:45.138Z,4.37
2018-12-09T06:00:14.051Z,1.73
2018-12-09T06:02:54.564Z,3.00
2018-12-09T06:05:23.427Z,5.13
2018-12-09T06:07:52.481Z,2.57
2018-12-09T06:10:21.123Z,3.13
2018-12-09T06:12:49.755Z,4.00
2018-12-09T06:15:18.422Z,3.37
2018-12-09T06:17:47.153Z,2.63
2018-12-09T06:20:15.770Z,5.20
2018-12-09T06:22:44.493Z,2.13
2018-12-09T06:25:13.135Z,4.17
2018-12-09T06:27:41.769Z,3.47
2018-12-09T06:30:11.582Z,2.87
2018-12-09T06:32:40.259Z,1.43
2018-12-09T06:35:09.219Z,5.57
2018-12-09T06:37:37.881Z,2.47
2018-12-09T06:40:07.429Z,3.90
2018-12-09T06:42:36.539Z,2.83
2018-12-09T06:45:06.151Z,3.03
2018-12-09T06:47:34.868Z,2.20
2018-12-09T06:50:04.505Z,3.67
2018-12-09T06:52:33.151Z,1.53
2018-12-09T06:55:01.809Z,5.30
2018-12-09T06:57:30.459Z,2.30
2018-12-09T06:59:59.143Z,2.10
2018-12-09T07:02:27.792Z,2.33
2018-12-09T07:04:56.448Z,1.37
2018-12-09T07:07:25.138Z,1.23
2018-12-09T07:09:53.838Z,2.07
2018-12-09T07:12:22.478Z,0.87
2018-12-09T07:14:51.159Z,0.87
2018-12-09T07:17:19.823Z,1.40
2018-12-09T07:19:48.482Z,1.33
2018-12-09T07:22:17.138Z,1.07
2018-12-09T07:24:45.803Z,0.80
2018-12-09T07:27:14.449Z,1.50
2018-12-09T07:29:43.127Z,0.87
2018-12-09T07:32:11.808Z,1.70
2018-12-09T07:34:40.495Z,3.27
2018-12-09T07:37:09.147Z,1.33
2018-12-09T07:39:37.812Z,1.37
2018-12-09T07:42:06.477Z,2.80
2018-12-09T07:44:35.130Z,1.67
2018-12-09T07:47:03.860Z,3.10
2018-12-09T07:49:32.562Z,3.13
2018-12-09T07:52:01.211Z,2.83
2018-12-09T07:54:29.883Z,0.90
2018-12-09T07:56:58.496Z,4.07
2018-12-09T07:59:27.150Z,3.00
2018-12-09T08:01:56.070Z,2.77
2018-12-09T08:04:24.724Z,2.63
2018-12-09T08:06:53.388Z,6.00
2018-12-09T08:09:22.006Z,1.07
2018-12-09T08:11:50.682Z,3.47
2018-12-09T08:14:19.345Z,3.03
2018-12-09T08:16:48.076Z,2.30
2018-12-09T08:19:16.753Z,1.77
2018-12-09T08:21:45.425Z,3.57
2018-12-09T08:24:14.110Z,4.50
2018-12-09T08:26:42.736Z,3.07
2018-12-09T08:29:11.452Z,7.47
2018-12-09T08:31:40.117Z,5.23
2018-12-09T08:34:08.769Z,4.30
2018-12-09T08:36:37.431Z,4.43
2018-12-09T08:39:06.736Z,4.43
2018-12-09T08:41:35.455Z,4.93
2018-12-09T08:44:04.280Z,6.47
2018-12-09T08:46:32.974Z,2.57
2018-12-09T08:49:01.620Z,5.67
2018-12-09T08:51:30.291Z,7.47
2018-12-09T08:53:58.882Z,7.87
2018-12-09T08:56:27.559Z,6.83
2018-12-09T08:58:56.246Z,5.53
2018-12-09T09:01:24.987Z,4.30
2018-12-09T09:03:53.722Z,6.53
2018-12-09T09:06:22.445Z,7.97
2018-12-09T09:08:51.123Z,9.00
2018-12-09T09:11:19.855Z,7.30
2018-12-09T09:13:48.593Z,5.80
2018-12-09T09:16:17.300Z,6.90
2018-12-09T09:18:45.971Z,7.10
2018-12-09T09:21:14.636Z,6.60
2018-12-09T09:23:43.324Z,8.53
2018-12-09T09:26:11.983Z,6.50
2018-12-09T09:28:40.693Z,7.00
2018-12-09T09:31:09.383Z,7.53
2018-12-09T09:33:38.063Z,7.50
2018-12-09T09:36:06.755Z,4.10
2018-12-09T09:38:35.428Z,6.20
2018-12-09T09:41:04.263Z,4.53
2018-12-09T09:43:32.928Z,4.67
2018-12-09T09:46:01.575Z,10.10
2018-12-09T09:48:30.239Z,6.53
2018-12-09T09:50:58.897Z,4.67
2018-12-09T09:53:27.924Z,10.77
2018-12-09T09:55:56.597Z,9.30
2018-12-09T09:58:25.238Z,4.63
2018-12-09T10:00:53.925Z,9.73
2018-12-09T10:03:26.031Z,7.50
2018-12-09T10:05:53.445Z,10.10
2018-12-09T10:08:22.122Z,7.97
2018-12-09T10:10:50.822Z,6.50
2018-12-09T10:13:19.425Z,12.60
2018-12-09T10:15:48.104Z,5.07
2018-12-09T10:18:17.832Z,8.17
2018-12-09T10:20:46.494Z,6.87
2018-12-09T10:23:16.039Z,6.83
2018-12-09T10:25:44.986Z,4.77
2018-12-09T10:28:13.631Z,12.37
2018-12-09T10:30:42.399Z,8.27
2018-12-09T10:33:11.025Z,7.43
2018-12-09T10:35:39.686Z,7.53
2018-12-09T10:38:08.381Z,3.87
2018-12-09T10:40:37.417Z,7.33
2018-12-09T10:43:06.162Z,7.83
2018-12-09T10:45:34.813Z,7.97
2018-12-09T10:48:03.508Z,9.07
2018-12-09T10:50:32.200Z,6.47
2018-12-09T10:53:00.951Z,5.67
2018-12-09T10:55:29.656Z,7.47
2018-12-09T10:57:58.348Z,9.17
2018-12-09T11:00:32.437Z,7.03
2018-12-09T11:03:01.096Z,9.80
2018-12-09T11:05:29.805Z,9.50
2018-12-09T11:07:58.445Z,4.93
2018-12-09T11:10:27.224Z,10.20
2018-12-09T11:12:56.946Z,7.70
2018-12-09T11:15:25.630Z,5.50
2018-12-09T11:17:54.333Z,7.30
2018-12-09T11:20:23.005Z,8.83
2018-12-09T11:22:51.714Z,4.63
2018-12-09T11:25:20.349Z,4.80
2018-12-09T11:27:49.096Z,5.30
2018-12-09T11:30:17.784Z,4.07
2018-12-09T11:32:46.478Z,3.73
2018-12-09T11:35:15.188Z,4.80
2018-12-09T11:37:43.853Z,3.77
2018-12-09T11:40:12.657Z,7.40
2018-12-09T11:42:41.318Z,4.20
2018-12-09T11:45:10.027Z,4.87
2018-12-09T11:47:41.867Z,6.20
2018-12-09T11:50:10.704Z,6.10
2018-12-09T11:52:39.427Z,7.43
2018-12-09T11:55:08.285Z,4.80
2018-12-09T11:57:36.942Z,9.80
2018-12-09T12:00:10.035Z,10.27
2018-12-09T12:02:38.769Z,3.93
2018-12-09T12:05:08.006Z,1.73
2018-12-09T12:07:36.739Z,3.27
2018-12-09T12:10:06.804Z,1.70
2018-12-09T12:12:35.529Z,2.53
2018-12-09T12:15:04.920Z,4.83
2018-12-09T12:17:33.663Z,2.13
2018-12-09T12:20:02.369Z,2.93
2018-12-09T12:22:31.073Z,2.13
2018-12-09T12:24:59.850Z,3.07
2018-12-09T12:27:28.549Z,5.47
2018-12-09T12:29:57.311Z,3.83
2018-12-09T12:32:26.020Z,5.93
2018-12-09T12:34:54.691Z,4.20
2018-12-09T12:37:23.352Z,3.43
2018-12-09T12:39:52.169Z,4.67
2018-12-09T12:42:20.844Z,7.43
2018-12-09T12:44:49.790Z,3.57
2018-12-09T12:47:19.077Z,6.63
2018-12-09T12:49:48.583Z,4.83
2018-12-09T12:52:17.321Z,3.00
2018-12-09T12:54:46.060Z,4.43
2018-12-09T12:57:15.138Z,4.27
2018-12-09T12:59:43.861Z,5.40
2018-12-09T13:02:12.538Z,5.27
2018-12-09T13:04:41.198Z,6.10
2018-12-09T13:07:10.199Z,6.03
2018-12-09T13:09:38.888Z,9.13
2018-12-09T13:12:07.599Z,6.63
2018-12-09T13:14:36.305Z,5.17
2018-12-09T13:17:05.175Z,6.07
2018-12-09T13:19:33.930Z,6.00
2018-12-09T13:22:02.600Z,3.30
2018-12-09T13:24:31.358Z,4.27
2018-12-09T13:27:00.071Z,4.47
2018-12-09T13:29:29.188Z,8.30
2018-12-09T13:31:57.891Z,4.33
2018-12-09T13:34:26.601Z,9.20
2018-12-09T13:36:55.275Z,7.63
2018-12-09T13:39:23.960Z,10.90
2018-12-09T13:41:52.624Z,4.17
2018-12-09T13:44:21.403Z,6.83
2018-12-09T13:46:50.098Z,10.00
2018-12-09T13:49:18.837Z,13.83
2018-12-09T13:51:47.707Z,14.27
2018-12-09T13:54:16.439Z,8.17
2018-12-09T13:56:45.072Z,10.70
2018-12-09T13:59:13.836Z,11.37
2018-12-09T14:01:42.751Z,5.90
2018-12-09T14:04:11.458Z,6.40
2018-12-09T14:06:40.104Z,6.20
2018-12-09T14:09:08.976Z,7.30
2018-12-09T14:11:37.667Z,7.37
2018-12-09T14:14:06.447Z,10.17
2018-12-09T14:16:35.333Z,4.17
2018-12-09T14:19:04.037Z,6.80
2018-12-09T14:21:33.031Z,8.73
2018-12-09T14:24:01.770Z,7.73
2018-12-09T14:26:30.474Z,5.17
2018-12-09T14:28:59.558Z,7.80
2018-12-09T14:31:30.616Z,6.67
2018-12-09T14:33:59.342Z,8.93
2018-12-09T14:36:28.510Z,11.60
2018-12-09T14:38:57.450Z,11.87
2018-12-09T14:41:26.202Z,5.33
2018-12-09T14:43:55.014Z,5.37
2018-12-09T14:46:23.720Z,10.40
2018-12-09T14:48:52.574Z,4.17
2018-12-09T14:51:21.313Z,10.40
2018-12-09T14:53:50.096Z,15.67
2018-12-09T14:56:19.923Z,11.17
2018-12-09T14:58:48.588Z,10.27
2018-12-09T15:01:17.292Z,8.60
2018-12-09T15:03:45.991Z,9.63
2018-12-09T15:06:14.660Z,9.43
2018-12-09T15:08:43.353Z,11.60
2018-12-09T15:11:12.166Z,11.33
2018-12-09T15:13:40.886Z,7.93
2018-12-09T15:16:09.585Z,8.37
2018-12-09T15:18:38.315Z,6.13
2018-12-09T15:21:07.139Z,8.93
2018-12-09T15:23:35.859Z,14.73
2018-12-09T15:26:04.732Z,9.33
2018-12-09T15:28:33.448Z,11.37
2018-12-09T15:31:02.132Z,19.57
2018-12-09T15:33:30.833Z,17.50
2018-12-09T15:36:03.757Z,17.20
2018-12-09T15:38:32.493Z,12.57
2018-12-09T15:41:01.472Z,13.90
2018-12-09T15:43:30.226Z,13.87
2018-12-09T15:45:58.964Z,14.63
2018-12-09T15:48:27.768Z,10.97
2018-12-09T15:50:56.629Z,16.57
2018-12-09T15:53:25.364Z,19.90
2018-12-09T15:55:54.034Z,14.90
2018-12-09T15:58:22.847Z,9.63
2018-12-09T16:00:55.966Z,14.60
2018-12-09T16:03:24.808Z,10.13
2018-12-09T16:05:53.457Z,14.83
2018-12-09T16:08:22.898Z,7.17
2018-12-09T16:10:51.557Z,7.07
2018-12-09T16:13:20.669Z,9.87
2018-12-09T16:15:49.586Z,11.23
2018-12-09T16:18:18.262Z,7.17
2018-12-09T16:20:46.978Z,7.93
2018-12-09T16:23:15.733Z,12.37
2018-12-09T16:25:44.424Z,12.50
2018-12-09T16:28:13.153Z,8.20
2018-12-09T16:30:41.897Z,11.00
2018-12-09T16:33:10.787Z,10.07
2018-12-09T16:35:39.502Z,6.40
2018-12-09T16:38:08.213Z,8.13
2018-12-09T16:40:36.949Z,13.40
2018-12-09T16:43:05.683Z,8.80
2018-12-09T16:45:34.391Z,7.77
2018-12-09T16:48:03.151Z,8.47
2018-12-09T16:50:31.859Z,12.50
2018-12-09T16:53:05.877Z,7.57
2018-12-09T16:55:34.596Z,10.17
2018-12-09T16:58:03.250Z,9.30
2018-12-09T17:00:31.988Z,10.10
2018-12-09T17:03:00.668Z,13.07
2018-12-09T17:05:29.374Z,9.47
2018-12-09T17:07:58.126Z,10.10
2018-12-09T17:10:26.872Z,5.60
2018-12-09T17:12:55.658Z,9.67
2018-12-09T17:15:24.351Z,10.57
2018-12-09T17:17:52.984Z,10.80
2018-12-09T17:20:21.762Z,9.87
2018-12-09T17:22:50.504Z,8.70
2018-12-09T17:25:19.238Z,8.80
2018-12-09T17:27:47.987Z,8.53
2018-12-09T17:30:16.698Z,9.47
2018-12-09T17:32:45.384Z,13.80
2018-12-09T17:35:14.174Z,9.40
2018-12-09T17:37:42.970Z,10.77
2018-12-09T17:40:11.732Z,8.50
2018-12-09T17:42:40.541Z,10.47
2018-12-09T17:45:09.273Z,6.60
2018-12-09T17:47:38.027Z,6.83
2018-12-09T17:50:07.612Z,10.13
2018-12-09T17:52:36.308Z,9.10
2018-12-09T17:55:05.136Z,8.50
2018-12-09T17:57:33.839Z,13.73
2018-12-09T18:00:02.780Z,10.33
2018-12-09T18:02:31.473Z,11.90
2018-12-09T18:05:00.232Z,10.53
2018-12-09T18:07:29.043Z,10.73
2018-12-09T18:09:58.003Z,7.23
2018-12-09T18:12:26.710Z,8.33
2018-12-09T18:14:55.420Z,11.77
2018-12-09T18:17:25.134Z,10.20
2018-12-09T18:19:54.422Z,9.13
2018-12-09T18:22:23.190Z,7.60
2018-12-09T18:24:52.928Z,4.90
2018-12-09T18:27:21.679Z,6.97
2018-12-09T18:29:50.399Z,8.00
2018-12-09T18:32:19.434Z,8.53
2018-12-09T18:34:48.426Z,11.33
2018-12-09T18:37:17.344Z,6.07
2018-12-09T18:39:46.198Z,6.30
2018-12-09T18:42:14.897Z,8.03
2018-12-09T18:44:43.588Z,10.00
2018-12-09T18:47:12.335Z,9.00
2018-12-09T18:49:41.037Z,8.63
2018-12-09T18:52:09.798Z,7.80
2018-12-09T18:54:38.526Z,12.90
2018-12-09T18:57:07.311Z,7.17
2018-12-09T18:59:36.054Z,7.23
2018-12-09T19:02:05.171Z,7.17
2018-12-09T19:04:33.916Z,7.00
2018-12-09T19:07:03.020Z,5.60
2018-12-09T19:09:31.768Z,7.93
2018-12-09T19:12:00.910Z,7.33
2018-12-09T19:14:29.719Z,7.23
2018-12-09T19:16:59.140Z,3.67
2018-12-09T19:19:27.836Z,9.67
2018-12-09T19:21:56.575Z,9.30
2018-12-09T19:24:25.243Z,10.10
2018-12-09T19:26:53.951Z,12.20
2018-12-09T19:29:24.903Z,10.37
2018-12-09T19:31:56.115Z,6.73
2018-12-09T19:34:26.436Z,7.13
2018-12-09T19:36:59.022Z,12.03
2018-12-09T19:39:27.926Z,7.93
2018-12-09T19:41:56.718Z,7.20
2018-12-09T19:44:30.061Z,13.50
2018-12-09T19:46:59.558Z,7.77
2018-12-09T19:49:30.060Z,7.07
2018-12-09T19:52:00.580Z,8.17
2018-12-09T19:54:31.314Z,8.73
2018-12-09T19:57:04.240Z,4.77
2018-12-09T19:59:35.126Z,11.03
2018-12-09T20:02:07.309Z,9.87
2018-12-09T20:04:38.359Z,6.90
2018-12-09T20:07:09.497Z,5.17
2018-12-09T20:09:38.793Z,6.27
2018-12-09T20:12:11.104Z,6.70
2018-12-09T20:14:42.324Z,6.80
2018-12-09T20:17:12.778Z,8.87
2018-12-09T20:19:41.648Z,7.13
2018-12-09T20:22:11.452Z,7.83
2018-12-09T20:24:40.220Z,4.77
2018-12-09T20:27:09.035Z,12.03
2018-12-09T20:29:40.365Z,6.67
2018-12-09T20:32:12.048Z,5.83
2018-12-09T20:34:43.968Z,8.23
2018-12-09T20:37:12.837Z,6.70
2018-12-09T20:39:41.560Z,5.63
2018-12-09T20:42:10.469Z,8.70
2018-12-09T20:44:42.618Z,3.67
2018-12-09T20:47:12.348Z,8.17
2018-12-09T20:49:44.282Z,4.47
2018-12-09T20:52:16.389Z,8.57
2018-12-09T20:54:48.577Z,7.47
2018-12-09T20:57:18.250Z,6.40
2018-12-09T20:59:47.334Z,11.33
2018-12-09T21:02:19.755Z,11.03
2018-12-09T21:04:48.641Z,6.63
2018-12-09T21:07:17.319Z,8.80
2018-12-09T21:09:46.012Z,7.40
2018-12-09T21:12:14.672Z,8.50
2018-12-09T21:14:43.423Z,3.60
2018-12-09T21:17:12.159Z,5.27
2018-12-09T21:19:40.862Z,4.63
2018-12-09T21:22:09.640Z,3.63
2018-12-09T21:24:38.384Z,5.67
2018-12-09T21:27:07.142Z,1.90
2018-12-09T21:29:35.881Z,1.57
2018-12-09T21:32:04.689Z,2.40
2018-12-09T21:34:33.429Z,4.70
2018-12-09T21:37:02.958Z,2.60
2018-12-09T21:39:31.643Z,3.10
2018-12-09T21:42:00.423Z,4.03
2018-12-09T21:44:29.069Z,4.17
2018-12-09T21:46:57.737Z,2.43
2018-12-09T21:49:26.370Z,5.03
2018-12-09T21:51:55.059Z,4.13
2018-12-09T21:54:23.732Z,3.90
2018-12-09T21:56:52.443Z,7.57
2018-12-09T21:59:21.106Z,4.20
2018-12-09T22:01:49.931Z,6.83
2018-12-09T22:04:18.548Z,6.20
2018-12-09T22:06:47.268Z,4.57
2018-12-09T22:09:15.951Z,6.80
2018-12-09T22:11:44.604Z,6.13
2018-12-09T22:14:13.298Z,5.63
2018-12-09T22:16:41.927Z,5.83
2018-12-09T22:19:10.663Z,3.50
2018-12-09T22:21:39.341Z,4.33
2018-12-09T22:24:08.000Z,7.97
2018-12-09T22:26:36.667Z,5.60
2018-12-09T22:29:05.355Z,8.03
2018-12-09T22:31:34.015Z,7.37
2018-12-09T22:34:02.647Z,6.50
2018-12-09T22:36:31.446Z,6.73
2018-12-09T22:39:00.100Z,12.33
2018-12-09T22:41:28.936Z,6.40
2018-12-09T22:43:57.580Z,6.10
2018-12-09T22:46:26.298Z,4.77
2018-12-09T22:48:54.941Z,9.63
2018-12-09T22:51:23.727Z,6.87
2018-12-09T22:53:52.457Z,5.87
2018-12-09T22:56:21.124Z,4.70
2018-12-09T22:58:49.763Z,4.83
2018-12-09T23:01:20.513Z,2.60
2018-12-09T23:03:49.205Z,6.27
2018-12-09T23:06:17.912Z,2.53
2018-12-09T23:08:46.571Z,2.80
2018-12-09T23:11:15.206Z,2.23
2018-12-09T23:13:43.851Z,4.67
2018-12-09T23:16:12.543Z,4.97
2018-12-09T23:18:41.186Z,2.63
2018-12-09T23:21:09.943Z,6.63
2018-12-09T23:23:38.595Z,6.27
2018-12-09T23:26:07.244Z,3.50
2018-12-09T23:28:35.903Z,3.23
2018-12-09T23:31:04.641Z,5.77
2018-12-09T23:33:33.306Z,3.27
2018-12-09T23:36:01.978Z,3.73
2018-12-09T23:38:30.649Z,4.17
2018-12-09T23:40:59.359Z,3.93
2018-12-09T23:43:27.982Z,3.83
2018-12-09T23:45:56.583Z,2.93
2018-12-09T23:48:25.201Z,3.90
2018-12-09T23:50:53.843Z,7.57
2018-12-09T23:53:22.473Z,7.00
2018-12-09T23:55:51.115Z,6.03
2018-12-09T23:58:19.751Z,3.93
